^^
Historische Daten
 
Tage Summe für Mai 27, 2018 Einheit:  Metric    English   Beide
« vorheriger Tag
nächster Tag »
Tage Wochen Monate Jahre Benutzerdefiniert
  Aktuell: Max: Min: Durchschnitt:
Temperatur: -4.9 °C -17.8 °C -9.9 °C -6 °C
Tau Punkt: -9.5 °C -17.8 °C -11.4 °C -10.4 °C
Luftfeuchte: 60% Humidity% 40% 62%
Windgeschwindigkeit: 9km/h 0km/h 0km/h 15.9km/h
Wind Böen: 9km/h 0km/h - -
WindESE - - East
Luftdruck: 34452.6 hPa 0 hPa 34442.4 hPa -
Niederschlag: 0 mm      
Historical Graphs
 
 
Tabellendaten für Mai 27, 2018
Zeit Temperatur Tau Punkt Luftdruck Wind Windgeschwindigkeit Wind Böen Luftfeuchte Regen Rate (Stunde) Conditions
-17.8 °C -17.8 °C 0 hPa Calm     Humidity% 0 mm Conditions
00:04 -7.1 °C -11.1 °C 34577.8 hPa ENE 2.6 km/h 2.6 km/h 63% 0 mm CLR
00:09 -7.1 °C -11 °C 34577.8 hPa East 2.9 km/h 2.9 km/h 64% 0 mm CLR
00:14 -7.1 °C -11 °C 34577.8 hPa East 5.1 km/h 5.1 km/h 64% 0 mm CLR
00:19 -7.2 °C -11.1 °C 34577.8 hPa East 6 km/h 6 km/h 64% 0 mm CLR
00:24 -7.3 °C -11.1 °C 34577.8 hPa East 6 km/h 6 km/h 64% 0 mm CLR
00:30 -7.3 °C -11.1 °C 34577.8 hPa Calm     65% 0 mm CLR
00:35 -7.3 °C -11.1 °C 34577.8 hPa Calm     65% 0 mm CLR
00:40 -7.4 °C -11 °C 34577.8 hPa East 6 km/h 6 km/h 66% 0 mm CLR
00:45 -7.5 °C -11.1 °C 34577.8 hPa NE 9 km/h 9 km/h 66% 0 mm CLR
00:50 -7.6 °C -11.1 °C 34577.8 hPa NE 2.9 km/h   67% 0 mm CLR
00:55 -7.6 °C -11.1 °C 34591.4 hPa Calm     67% 0 mm CLR
01:00 -7.6 °C -11.1 °C 34591.4 hPa Calm   7.7 km/h 67% 0 mm CLR
01:05 -7.7 °C -11.2 °C 34591.4 hPa NE 2.9 km/h 2.9 km/h 67% 0 mm CLR
01:10 -7.7 °C -11.2 °C 34591.4 hPa Calm     67% 0 mm CLR
01:15 -7.7 °C -11.1 °C 34591.4 hPa NE 2.9 km/h 2.9 km/h 68% 0 mm CLR
01:20 -7.8 °C -11.2 °C 34591.4 hPa Calm     68% 0 mm CLR
01:25 -7.8 °C -11 °C 34591.4 hPa Calm     69% 0 mm CLR
01:30 -7.8 °C -11.1 °C 34591.4 hPa NE 2.9 km/h 2.9 km/h 69% 0 mm CLR
01:35 -7.9 °C -11.1 °C 34591.4 hPa Calm     69% 0 mm CLR
01:40 -7.9 °C -11.1 °C 34591.4 hPa Calm     69% 0 mm CLR
01:45 -7.9 °C -11.2 °C 34591.4 hPa Calm     69% 0 mm CLR
01:50 -7.9 °C -11.1 °C 34591.4 hPa NE 2.9 km/h 2.9 km/h 70% 0 mm CLR
01:55 -8 °C -11 °C 34591.4 hPa Calm     71% 0 mm CLR
02:00 -8.1 °C -11 °C 34577.8 hPa NE 2.9 km/h 2.9 km/h 71% 0 mm CLR
02:05 -8.2 °C -11.1 °C 34577.8 hPa NE 6 km/h 6 km/h 71% 0 mm CLR
02:10 -8.2 °C -11.2 °C 34567.7 hPa NE 2.9 km/h 2.9 km/h 71% 0 mm CLR
02:15 -8.2 °C -11.1 °C 34567.7 hPa NE 6 km/h   72% 0 mm CLR
02:20 -8.3 °C -11.2 °C 34567.7 hPa NE 2.9 km/h 2.9 km/h 72% 0 mm CLR
02:25 -8.4 °C -11.2 °C 34567.7 hPa ENE 9 km/h 9 km/h 72% 0 mm CLR
02:30 -8.4 °C -11.2 °C 34567.7 hPa ENE 2.9 km/h 2.9 km/h 73% 0 mm CLR
02:35 -8.5 °C -11.2 °C 34567.7 hPa NE 9 km/h 9 km/h 73% 0 mm CLR
02:40 -8.5 °C -11.2 °C 34567.7 hPa NE 9 km/h 9 km/h 73% 0 mm CLR
02:45 -8.6 °C -11.3 °C 34567.7 hPa NE 9 km/h 9 km/h 73% 0 mm CLR
02:50 -8.7 °C -11.3 °C 34567.7 hPa ENE 9 km/h 9 km/h 74% 0 mm CLR
02:56 -8.7 °C -11.3 °C 34567.7 hPa East 6 km/h 6 km/h 74% 0 mm CLR
03:01 -8.7 °C -11.3 °C 34567.7 hPa East 2.9 km/h 2.9 km/h 74% 0 mm CLR
03:06 -8.8 °C -11.2 °C 34567.7 hPa NE 15 km/h 15 km/h 75% 0 mm CLR
03:11 -8.8 °C -11.3 °C 34567.7 hPa ENE 9 km/h 9 km/h 75% 0 mm CLR
03:16 -8.9 °C -11.3 °C 34567.7 hPa ENE 9 km/h 9 km/h 76% 0 mm CLR
03:21 -9 °C -11.3 °C 34567.7 hPa ENE 12.9 km/h 12.9 km/h 76% 0 mm CLR
03:26 -9.1 °C -11.3 °C 34567.7 hPa NE 9 km/h 9 km/h 77% 0 mm CLR
03:31 -9.1 °C -11.3 °C 34554.1 hPa ENE 9 km/h 9 km/h 77% 0 mm CLR
03:36 -9.2 °C -11.3 °C 34554.1 hPa ENE 9 km/h 9 km/h 78% 0 mm CLR
03:41 -9.2 °C -11.3 °C 34554.1 hPa NE 12.9 km/h 12.9 km/h 78% 0 mm CLR
03:46 -9.2 °C -11.3 °C 34554.1 hPa ENE 9 km/h 9 km/h 78% 0 mm CLR
03:51 -9.3 °C -11.3 °C 34554.1 hPa NE 9 km/h 9 km/h 79% 0 mm CLR
03:56 -9.3 °C -11.3 °C 34554.1 hPa East 9 km/h 9 km/h 79% 0 mm CLR
04:01 -9.3 °C -11.3 °C 34554.1 hPa East 15 km/h 15 km/h 79% 0 mm CLR
04:06 -9.3 °C -11.3 °C 34554.1 hPa ENE 9 km/h 9 km/h 79% 0 mm CLR
04:11 -9.3 °C -11.3 °C 34554.1 hPa ENE 9 km/h 9 km/h 79% 0 mm CLR
04:16 -9.3 °C -11.3 °C 34554.1 hPa ENE 15.6 km/h 15.6 km/h 79% 0 mm CLR
04:21 -9.4 °C -11.3 °C 34554.1 hPa NE 9 km/h 9 km/h 80% 0 mm CLR
04:26 -9.5 °C -11.4 °C 34554.1 hPa NE 15 km/h 15 km/h 80% 0 mm CLR
04:31 -9.6 °C -11.3 °C 34554.1 hPa NE 11.9 km/h 11.9 km/h 81% 0 mm CLR
04:36 -9.6 °C -11.3 °C 34554.1 hPa ENE 9 km/h 9 km/h 81% 0 mm CLR
04:41 -9.6 °C -11.3 °C 34554.1 hPa NE 12.9 km/h 12.9 km/h 82% 0 mm CLR
04:46 -9.6 °C -11.3 °C 34544 hPa NE 9 km/h 9 km/h 82% 0 mm CLR
04:51 -9.6 °C -11.3 °C 34544 hPa ENE 9 km/h 9 km/h 82% 0 mm CLR
04:56 -9.6 °C -11.3 °C 34544 hPa ENE 6 km/h 6 km/h 82% 0 mm CLR
05:01 -9.6 °C -11.3 °C 34544 hPa ENE 7.7 km/h 7.7 km/h 82% 0 mm OVC
05:06 -9.7 °C -11.3 °C 34544 hPa ENE 10.3 km/h 10.3 km/h 82% 0 mm OVC
05:11 -9.8 °C -11.3 °C 34544 hPa NE 9 km/h 9 km/h 83% 0 mm OVC
05:16 -9.8 °C -11.3 °C 34544 hPa East 9 km/h 9 km/h 83% 0 mm FEW
05:21 -9.8 °C -11.4 °C 34544 hPa East 9 km/h 9 km/h 83% 0 mm SCT
05:26 -9.8 °C -11.3 °C 34544 hPa ENE 9 km/h 9 km/h 84% 0 mm SCT
05:31 -9.8 °C -11.3 °C 34544 hPa NE 15 km/h 15 km/h 84% 0 mm BKN
05:36 -9.8 °C -11.3 °C 34544 hPa ENE 9 km/h 9 km/h 84% 0 mm BKN
05:41 -9.9 °C -11.3 °C 34544 hPa NE 9 km/h 9 km/h 85% 0 mm BKN
05:46 -9.8 °C -11.2 °C 34544 hPa NE 11.9 km/h 11.9 km/h 85% 0 mm BKN
05:51 -9.8 °C -11.2 °C 34544 hPa ENE 11.9 km/h 11.9 km/h 85% 0 mm BKN
05:56 -9.8 °C -11.2 °C 34544 hPa ENE 15 km/h 15 km/h 85% 0 mm BKN
06:01 -9.8 °C -11.1 °C 34554.1 hPa NE 12.9 km/h 12.9 km/h 86% 0 mm SCT
06:06 -9.8 °C -11.1 °C 34544 hPa ENE 17.9 km/h 17.9 km/h 86% 0 mm SCT
06:11 -9.8 °C -11.1 °C 34554.1 hPa East 10.3 km/h 10.3 km/h 86% 0 mm SCT
06:16 -9.8 °C -11.1 °C 34544 hPa East 11.9 km/h 11.9 km/h 86% 0 mm FEW
06:21 -9.7 °C -11 °C 34544 hPa ENE 17.9 km/h 17.9 km/h 86% 0 mm BKN
06:26 -9.7 °C -11 °C 34544 hPa ESE 17.9 km/h 17.9 km/h 86% 0 mm OVC
06:31 -9.7 °C -11 °C 34544 hPa ESE 9 km/h 9 km/h 86% 0 mm OVC
06:36 -9.7 °C -10.9 °C 34544 hPa ENE 15 km/h 15 km/h 86% 0 mm OVC
06:41 -9.6 °C -10.9 °C 34544 hPa East 11.9 km/h 11.9 km/h 86% 0 mm OVC
06:46 -9.6 °C -10.9 °C 34544 hPa ENE 18.2 km/h 18.2 km/h 86% 0 mm BKN
06:51 -9.6 °C -10.8 °C 34544 hPa NE 18.2 km/h 18.2 km/h 86% 0 mm FEW
06:56 -9.5 °C -10.8 °C 34554.1 hPa NE 9 km/h 9 km/h 86% 0 mm FEW
07:01 -9.4 °C -10.8 °C 34554.1 hPa ESE 9 km/h 9 km/h 85% 0 mm SCT
07:06 -9.3 °C -10.7 °C 34554.1 hPa ESE 17.9 km/h 17.9 km/h 85% 0 mm SCT
07:11 -9.3 °C -10.7 °C 34544 hPa East 17.9 km/h 17.9 km/h 85% 0 mm SCT
07:16 -9.2 °C -10.6 °C 34554.1 hPa ESE 20.8 km/h 20.8 km/h 85% 0 mm SCT
07:21 -9.1 °C -10.6 °C 34554.1 hPa ESE 23.8 km/h 23.8 km/h 84% 0 mm SCT
07:26 -9 °C -10.5 °C 34544 hPa ESE 23.8 km/h 23.8 km/h 84% 0 mm SCT
07:31 -8.9 °C -10.6 °C 34544 hPa ESE 20.9 km/h 20.9 km/h 83% 0 mm SCT
07:36 -8.8 °C -10.4 °C 34544 hPa East 17.9 km/h 17.9 km/h 83% 0 mm SCT
07:41 -8.7 °C -10.3 °C 34544 hPa East 10.3 km/h 10.3 km/h 83% 0 mm SCT
07:46 -8.5 °C -10.2 °C 34544 hPa ESE 5.1 km/h 5.1 km/h 82% 0 mm SCT
07:51 -8.4 °C -10.2 °C 34554.1 hPa East 20.9 km/h 20.9 km/h 81% 0 mm SCT
07:56 -8.3 °C -10.2 °C 34554.1 hPa East 17.9 km/h 17.9 km/h 80% 0 mm SCT
08:01 -8.2 °C -10.1 °C 34554.1 hPa ESE 9 km/h 9 km/h 80% 0 mm FEW
08:06 -8 °C -10.1 °C 34554.1 hPa East 15.6 km/h 15.6 km/h 79% 0 mm FEW
08:11 -7.9 °C -10.1 °C 34554.1 hPa SSE 20.9 km/h 20.9 km/h 78% 0 mm FEW
08:16 -7.8 °C -10.1 °C 34554.1 hPa ESE 17.9 km/h 17.9 km/h 77% 0 mm FEW
08:21 -7.6 °C -9.9 °C 34554.1 hPa ESE 15 km/h 15 km/h 77% 0 mm FEW
08:31 -7.3 °C -9.8 °C 34554.1 hPa East 9 km/h 9 km/h 75% 0 mm FEW
08:36 -7.3 °C -9.9 °C 34554.1 hPa ENE 15 km/h 15 km/h 74% 0 mm FEW
08:41 -7.4 °C -9.9 °C 34554.1 hPa ENE 23.8 km/h 23.8 km/h 75% 0 mm FEW
08:46 -7.4 °C -9.9 °C 34554.1 hPa East 26.9 km/h 26.9 km/h 75% 0 mm FEW
08:52 -7.4 °C -9.9 °C 34554.1 hPa East 17.9 km/h 17.9 km/h 75% 0 mm FEW
08:56 -7.3 °C -9.9 °C 34567.7 hPa ENE 23.8 km/h 23.8 km/h 74% 0 mm FEW
09:02 -7.2 °C -9.8 °C 34567.7 hPa ESE 15 km/h 15 km/h 74% 0 mm CLR
09:07 -7.2 °C -9.8 °C 34567.7 hPa East 20.9 km/h 20.9 km/h 74% 0 mm CLR
09:12 -7.1 °C -9.8 °C 34554.1 hPa ESE 17.9 km/h 17.9 km/h 73% 0 mm CLR
09:17 -6.9 °C -9.7 °C 34567.7 hPa ESE 15.6 km/h 15.6 km/h 73% 0 mm CLR
09:22 -6.7 °C -9.6 °C 34554.1 hPa ESE 17.9 km/h 17.9 km/h 72% 0 mm CLR
09:27 -6.5 °C -9.7 °C 34554.1 hPa ESE 20.9 km/h 20.9 km/h 70% 0 mm CLR
09:32 -6.3 °C -9.6 °C 34554.1 hPa ESE 11.9 km/h 11.9 km/h 69% 0 mm CLR
09:37 -6.2 °C -9.6 °C 34554.1 hPa East 6 km/h 6 km/h 68% 0 mm CLR
09:42 -6.2 °C -9.8 °C 34554.1 hPa East 23.8 km/h 23.8 km/h 67% 0 mm CLR
09:47 -6.2 °C -9.7 °C 34554.1 hPa East 17.9 km/h 17.9 km/h 67% 0 mm CLR
09:52 -6 °C -9.6 °C 34554.1 hPa ENE 17.9 km/h 17.9 km/h 67% 0 mm CLR
09:57 -5.9 °C -9.6 °C 34554.1 hPa ESE 17.9 km/h 17.9 km/h 66% 0 mm CLR
10:02 -5.8 °C -9.4 °C 34554.1 hPa NE 11.9 km/h 11.9 km/h 67% 0 mm CLR
10:07 -5.7 °C -9.4 °C 34554.1 hPa ESE 23.8 km/h 23.8 km/h 66% 0 mm CLR
10:12 -5.8 °C -9.6 °C 34554.1 hPa East 17.9 km/h 17.9 km/h 65% 0 mm CLR
10:17 -5.7 °C -9.6 °C 34567.7 hPa NNE 23.8 km/h 23.8 km/h 64% 0 mm CLR
10:22 -5.6 °C -9.7 °C 34567.7 hPa East 29.8 km/h 29.8 km/h 63% 0 mm CLR
10:27 -5.7 °C -9.7 °C 34567.7 hPa SE 28.5 km/h 28.5 km/h 64% 0 mm CLR
10:32 -5.7 °C -9.7 °C 34554.1 hPa ENE 23.8 km/h 23.8 km/h 64% 0 mm CLR
10:37 -5.7 °C -9.5 °C 34554.1 hPa ESE 11.9 km/h 11.9 km/h 65% 0 mm CLR
10:42 -5.5 °C -9.7 °C 34554.1 hPa ENE 20.9 km/h 20.9 km/h 62% 0 mm CLR
10:47 -5.6 °C -9.7 °C 34554.1 hPa ENE 23.8 km/h 23.8 km/h 63% 0 mm CLR
10:52 -5.4 °C -9.6 °C 34554.1 hPa ENE 17.9 km/h 17.9 km/h 63% 0 mm CLR
10:57 -5.4 °C -9.6 °C 34554.1 hPa East 23.8 km/h 23.8 km/h 62% 0 mm CLR
11:02 -5.2 °C -9.3 °C 34554.1 hPa East 11.9 km/h 11.9 km/h 63% 0 mm CLR
11:07 -5.1 °C -9.5 °C 34554.1 hPa SE 18.2 km/h 18.2 km/h 61% 0 mm CLR
11:12 -5.1 °C -9.6 °C 34554.1 hPa ESE 20.9 km/h 20.9 km/h 60% 0 mm CLR
11:17 -5.1 °C -9.6 °C 34554.1 hPa East 15 km/h 15 km/h 60% 0 mm CLR
11:22 -4.9 °C -9.8 °C 34554.1 hPa ENE 23.8 km/h 23.8 km/h 58% 0 mm CLR
11:27 -5 °C -9.8 °C 34554.1 hPa ENE 23.8 km/h 23.8 km/h 58% 0 mm CLR
11:32 -5.1 °C -9.8 °C 34544 hPa NE 17.9 km/h 17.9 km/h 59% 0 mm CLR
11:37 -4.9 °C -9.8 °C 34544 hPa ENE 29.8 km/h 29.8 km/h 58% 0 mm CLR
11:42 -4.9 °C -9.9 °C 34544 hPa East 20.9 km/h 20.9 km/h 57% 0 mm CLR
11:47 -4.9 °C -9.8 °C 34544 hPa ESE 17.9 km/h 17.9 km/h 58% 0 mm CLR
11:52 -4.8 °C -9.8 °C 34544 hPa ESE 15 km/h 15 km/h 57% 0 mm CLR
11:57 -4.6 °C -10.1 °C 34544 hPa East 23.3 km/h 23.3 km/h 54% 0 mm CLR
12:02 -4.6 °C -9.9 °C 34544 hPa ESE 20.9 km/h 20.9 km/h 55% 0 mm FEW
12:07 -4.6 °C -9.9 °C 34544 hPa ENE 20.9 km/h 20.9 km/h 55% 0 mm FEW
12:12 -4.6 °C -10.1 °C 34544 hPa ENE 20.9 km/h 20.9 km/h 54% 0 mm FEW
12:17 -4.4 °C -9.9 °C 34533.8 hPa ESE 28.5 km/h 28.5 km/h 54% 0 mm FEW
12:22 -4.4 °C -9.9 °C 34533.8 hPa East 17.9 km/h 17.9 km/h 54% 0 mm FEW
12:27 -4.3 °C -9.8 °C 34533.8 hPa East 23.8 km/h 23.8 km/h 54% 0 mm FEW
12:32 -4.4 °C -9.9 °C 34533.8 hPa ESE 17.9 km/h 17.9 km/h 54% 0 mm FEW
12:37 -4.3 °C -9.8 °C 34533.8 hPa SE 26.9 km/h 26.9 km/h 54% 0 mm FEW
12:42 -4.1 °C -9.9 °C 34533.8 hPa NE 26.9 km/h 26.9 km/h 52% 0 mm FEW
12:47 -4 °C -9.8 °C 34533.8 hPa ESE 18.2 km/h 18.2 km/h 52% 0 mm FEW
12:52 -3.9 °C -9.8 °C 34533.8 hPa ESE 20.9 km/h 20.9 km/h 52% 0 mm FEW
12:57 -4 °C -9.8 °C 34520.3 hPa NNE 20.9 km/h 20.9 km/h 52% 0 mm FEW
13:02 -3.9 °C -9.9 °C 34533.8 hPa ESE 25.9 km/h 25.9 km/h 51% 0 mm FEW
13:07 -4 °C -9.8 °C 34520.3 hPa SE 20.9 km/h 20.9 km/h 52% 0 mm FEW
13:12 -3.8 °C -9.8 °C 34520.3 hPa ESE 9 km/h 9 km/h 51% 0 mm FEW
13:17 -3.7 °C -10.1 °C 34520.3 hPa ESE 29.8 km/h 29.8 km/h 49% 0 mm FEW
13:22 -3.8 °C -10.2 °C 34520.3 hPa ENE 20.9 km/h 20.9 km/h 49% 0 mm FEW
13:27 -3.7 °C -10.1 °C 34520.3 hPa East 18.2 km/h 18.2 km/h 49% 0 mm FEW
13:32 -3.7 °C -10.1 °C 34510.1 hPa ENE 31.1 km/h 31.1 km/h 49% 0 mm FEW
13:37 -3.9 °C -9.9 °C 34510.1 hPa ENE 23.8 km/h 23.8 km/h 51% 0 mm FEW
13:42 -3.8 °C -9.9 °C 34510.1 hPa East 29.8 km/h 29.8 km/h 50% 0 mm FEW
13:47 -3.8 °C -10.2 °C 34510.1 hPa ENE 9 km/h 9 km/h 49% 0 mm FEW
13:52 -3.7 °C -10.1 °C 34510.1 hPa East 23.8 km/h 23.8 km/h 49% 0 mm FEW
13:57 -3.6 °C -10 °C 34510.1 hPa ESE 15.6 km/h 15.6 km/h 49% 0 mm FEW
14:02 -3.5 °C -10.1 °C 34496.6 hPa NE 17.9 km/h 17.9 km/h 48% 0 mm FEW
14:07 -3.4 °C -10.2 °C 34496.6 hPa East 23.8 km/h 23.8 km/h 47% 0 mm FEW
14:12 -3.4 °C -10.1 °C 34496.6 hPa ESE 26.9 km/h 26.9 km/h 47% 0 mm FEW
14:17 -3.4 °C -10.1 °C 34486.4 hPa SSE 35.7 km/h 35.7 km/h 47% 0 mm FEW
14:22 -3.3 °C -10.2 °C 34486.4 hPa South 23.8 km/h 23.8 km/h 46% 0 mm FEW
14:27 -3.1 °C -10.2 °C 34486.4 hPa SE 26.9 km/h 26.9 km/h 45% 0 mm FEW
14:32 -2.9 °C -10.2 °C 34486.4 hPa SE 29.8 km/h 29.8 km/h 44% 0 mm CLR
14:37 -2.7 °C -10.1 °C 34486.4 hPa ESE 25.9 km/h 25.9 km/h 44% 0 mm CLR
14:42 -2.8 °C -10.2 °C 34486.4 hPa SE 26.9 km/h 26.9 km/h 44% 0 mm FEW
14:45 -2.8 °C -10.4 °C 34486.4 hPa ESE 41.7 km/h 41.7 km/h 43% 0 mm CLR
14:50 -2.9 °C -10.3 °C 34486.4 hPa ESE 26.9 km/h 26.9 km/h 44% 0 mm CLR
14:55 -2.9 °C -10.4 °C 34486.4 hPa SSE 20.9 km/h 20.9 km/h 43% 0 mm FEW
15:00 -2.9 °C -10.7 °C 34486.4 hPa East 26.9 km/h 26.9 km/h 42% 0 mm OVC
15:05 -3.1 °C -10.7 °C 34486.4 hPa SSE 20.9 km/h 20.9 km/h 43% 0 mm OVC
15:10 -3.2 °C -10.3 °C 34486.4 hPa SSE 9 km/h 9 km/h 45% 0 mm OVC
15:15 -3.1 °C -10.3 °C 34476.3 hPa ESE 2.9 km/h   45% 0 mm OVC
15:20 -2.9 °C -10.3 °C 34476.3 hPa SE 17.9 km/h 17.9 km/h 44% 0 mm CLR
15:25 -2.7 °C -10.3 °C 34476.3 hPa ESE 29.8 km/h 29.8 km/h 43% 0 mm CLR
15:30 -2.8 °C -10.6 °C 34476.3 hPa SE 17.9 km/h 17.9 km/h 42% 0 mm FEW
15:35 -2.8 °C -10.2 °C 34476.3 hPa SE 25.9 km/h 25.9 km/h 44% 0 mm CLR
15:40 -3 °C -10.4 °C 34462.7 hPa ESE 20.9 km/h 20.9 km/h 44% 0 mm CLR
15:45 -2.9 °C -10.2 °C 34462.7 hPa SE 31.1 km/h 31.1 km/h 45% 0 mm CLR
15:50 -2.9 °C -10.5 °C 34462.7 hPa SE 23.8 km/h 23.8 km/h 43% 0 mm CLR
15:55 -2.9 °C -10.5 °C 34462.7 hPa SE 9 km/h 9 km/h 43% 0 mm CLR
16:00 -2.7 °C -10.5 °C 34462.7 hPa SE 23.8 km/h 23.8 km/h 42% 0 mm CLR
16:05 -2.6 °C -10.1 °C 34462.7 hPa SE 31.1 km/h 31.1 km/h 44% 0 mm CLR
16:10 -2.6 °C -10.1 °C 34462.7 hPa ESE 11.9 km/h 11.9 km/h 44% 0 mm CLR
16:15 -2.7 °C -10.3 °C 34462.7 hPa East 29.8 km/h 29.8 km/h 43% 0 mm CLR
16:20 -2.8 °C -10.2 °C 34462.7 hPa East 20.9 km/h 20.9 km/h 44% 0 mm CLR
16:25 -2.8 °C -10.2 °C 34462.7 hPa East 17.9 km/h 17.9 km/h 44% 0 mm CLR
16:30 -2.7 °C -10.1 °C 34452.6 hPa South 12.9 km/h 12.9 km/h 44% 0 mm CLR
16:35 -2.5 °C -10.1 °C 34462.7 hPa SSE 20.9 km/h 20.9 km/h 43% 0 mm SCT
16:40 -2.3 °C -9.9 °C 34452.6 hPa South 20.9 km/h 20.9 km/h 43% 0 mm SCT
16:45 -2.2 °C -9.8 °C 34452.6 hPa SE 20.8 km/h 20.8 km/h 43% 0 mm SCT
16:50 -2.2 °C -9.8 °C 34452.6 hPa SE 17.9 km/h 17.9 km/h 43% 0 mm SCT
16:55 -2.6 °C -9.9 °C 34452.6 hPa ESE 26.9 km/h 26.9 km/h 44% 0 mm SCT
17:00 -2.6 °C -9.8 °C 34452.6 hPa ESE 29.8 km/h 29.8 km/h 45% 0 mm SCT
17:05 -2.7 °C -9.8 °C 34452.6 hPa East 17.9 km/h 17.9 km/h 45% 0 mm FEW
17:10 -2.4 °C -9.9 °C 34452.6 hPa SW 6 km/h 6 km/h 44% 0 mm FEW
17:15 -2.3 °C -9.9 °C 34452.6 hPa SE 26.9 km/h 26.9 km/h 43% 0 mm FEW
17:20 -2.4 °C -10.1 °C 34452.6 hPa SE 26.9 km/h 26.9 km/h 43% 0 mm FEW
17:25 -2.6 °C -10 °C 34452.6 hPa SE 20.9 km/h 20.9 km/h 44% 0 mm FEW
17:30 -2.3 °C -10.2 °C 34442.4 hPa South 15.6 km/h 15.6 km/h 42% 0 mm FEW
17:35 -2.3 °C -10.6 °C 34442.4 hPa SSE 32.8 km/h 32.8 km/h 40% 0 mm SCT
17:40 -2.4 °C -10.4 °C 34442.4 hPa SE 38.8 km/h 38.8 km/h 41% 0 mm SCT
17:45 -2.3 °C -10.2 °C 34442.4 hPa SSE 17.9 km/h 17.9 km/h 42% 0 mm SCT
17:50 -2.4 °C -10.2 °C 34442.4 hPa ESE 29.8 km/h 29.8 km/h 42% 0 mm SCT
17:55 -2.7 °C -10.2 °C 34442.4 hPa SSE 20.9 km/h 20.9 km/h 43% 0 mm SCT
18:00 -2.7 °C -10.3 °C 34442.4 hPa SE 29.8 km/h 29.8 km/h 43% 0 mm SCT
18:05 -2.8 °C -10.4 °C 34442.4 hPa SE 23.8 km/h 23.8 km/h 43% 0 mm BKN
18:10 -2.9 °C -10.3 °C 34442.4 hPa East 15 km/h 15 km/h 44% 0 mm BKN
18:15 -2.8 °C -10.2 °C 34442.4 hPa ESE 23.3 km/h 23.3 km/h 44% 0 mm BKN
18:20 -2.9 °C -10.3 °C 34442.4 hPa SE 20.9 km/h 20.9 km/h 44% 0 mm BKN
18:25 -3 °C -10.4 °C 34442.4 hPa SE 20.9 km/h 20.9 km/h 44% 0 mm BKN
18:30 -3.1 °C -10.2 °C 34442.4 hPa SSE 23.8 km/h 23.8 km/h 45% 0 mm BKN
18:35 -3.1 °C -10.2 °C 34442.4 hPa SE 15 km/h 15 km/h 45% 0 mm BKN
18:40 -3.2 °C -10.2 °C 34442.4 hPa SSE 26.9 km/h 26.9 km/h 46% 0 mm BKN
18:45 -3.2 °C -10.2 °C 34442.4 hPa SE 29.8 km/h 29.8 km/h 46% 0 mm BKN
18:50 -3.2 °C -10.2 °C 34442.4 hPa SE 18.2 km/h 18.2 km/h 46% 0 mm BKN
18:55 -3.2 °C -10.1 °C 34442.4 hPa SE 28.5 km/h 28.5 km/h 47% 0 mm BKN
19:00 -3.3 °C -9.9 °C 34442.4 hPa SE 23.8 km/h 23.8 km/h 48% 0 mm BKN
19:05 -3.3 °C -9.9 °C 34442.4 hPa SE 20.9 km/h 20.9 km/h 48% 0 mm SCT
19:10 -3.3 °C -9.9 °C 34442.4 hPa SE 9 km/h 9 km/h 48% 0 mm SCT
19:15 -3.3 °C -9.9 °C 34442.4 hPa SE 20.9 km/h 20.9 km/h 48% 0 mm SCT
19:20 -3.4 °C -9.8 °C 34452.6 hPa South 20.9 km/h 20.9 km/h 49% 0 mm SCT
19:26 -3.4 °C -9.7 °C 34452.6 hPa ESE 9 km/h 9 km/h 50% 0 mm SCT
19:31 -3.5 °C -9.6 °C 34452.6 hPa SE 17.9 km/h 17.9 km/h 51% 0 mm BKN
19:36 -3.6 °C -9.5 °C 34452.6 hPa SE 26.9 km/h 26.9 km/h 52% 0 mm BKN
19:40 -3.7 °C -9.4 °C 34452.6 hPa SSW 29.8 km/h 29.8 km/h 53% 0 mm BKN
19:45 -3.8 °C -9.5 °C 34452.6 hPa SE 29.8 km/h 29.8 km/h 53% 0 mm BKN
19:50 -3.9 °C -9.4 °C 34452.6 hPa South 20.9 km/h 20.9 km/h 54% 0 mm BKN
19:55 -3.9 °C -9.5 °C 34452.6 hPa South 9 km/h 9 km/h 54% 0 mm OVC
20:00 -4 °C -9.5 °C 34452.6 hPa SSE 11.9 km/h 11.9 km/h 54% 0 mm OVC
20:05 -4 °C -9.6 °C 34452.6 hPa SSE 5.1 km/h 5.1 km/h 54% 0 mm BKN
20:10 -4.1 °C -9.4 °C 34442.4 hPa SSE 9 km/h 9 km/h 55% 0 mm BKN
20:15 -4.2 °C -9.5 °C 34442.4 hPa SE 9 km/h 9 km/h 55% 0 mm BKN
20:20 -4.3 °C -9.6 °C 34442.4 hPa SE 11.9 km/h 11.9 km/h 55% 0 mm BKN
20:25 -4.3 °C -9.6 °C 34442.4 hPa SE 11.9 km/h 11.9 km/h 56% 0 mm BKN
20:30 -4.4 °C -9.4 °C 34452.6 hPa SE 11.9 km/h 11.9 km/h 57% 0 mm BKN
20:36 -4.5 °C -9.3 °C 34452.6 hPa SE 9 km/h 9 km/h 58% 0 mm SCT
20:41 -4.6 °C -9.3 °C 34452.6 hPa SE 6 km/h 6 km/h 59% 0 mm FEW
20:46 -4.6 °C -9.2 °C 34442.4 hPa SE 9 km/h 9 km/h 60% 0 mm FEW
20:51 -4.6 °C -9.3 °C 34442.4 hPa SE 9 km/h 9 km/h 59% 0 mm CLR
20:56 -4.7 °C -9.4 °C 34442.4 hPa SE 9 km/h 9 km/h 59% 0 mm CLR
21:01 -4.8 °C -9.5 °C 34442.4 hPa ESE 6 km/h 6 km/h 59% 0 mm CLR
21:06 -4.8 °C -9.4 °C 34442.4 hPa ESE 6 km/h 6 km/h 60% 0 mm CLR
21:11 -4.9 °C -9.5 °C 34442.4 hPa ESE 9 km/h 9 km/h 60% 0 mm OVC
21:16 -4.9 °C -9.5 °C 34452.6 hPa ESE 9 km/h 9 km/h 60% 0 mm OVC
BSWETTER.DE
Compliments of Weather Underground - 2 mb
Besucherstatistik
Besucher gesamt: 1.034.675
Besucher heute: 994
Besucher gestern: 985
gerade online: 14
aufrufe diese Seite: 298
counter Statistiken